Bobo-Dioulasso, Burkina Faso

10:16 AM GMT on July 29, 2015 (GMT +0000)
Bobo-Dioulasso | | Change Station
CLOSE
Current Station
Airport
Location: Bobo-Dioulasso,
Elevation: 1509 ft
Nearby Weather Stations

Elev 1509 ft 11.17 °N, 4.30 °W | Updated 16 minutes ago

Scattered Clouds
Scattered Clouds
79 °F
Feels Like 79 °F
N
14
Wind Variable Wind from SSW

Today
High -- | Low -- °F
--% Chance of Precip.
Yesterday
High -- | Low -- °F
Precip. -- in
6:04 AM 6:42 PM
Waxing Gibbous, 94% visible
Pressure 30.04 in
Visibility 6.2 miles
Clouds Few 1600 ft
Scattered Clouds 13000 ft
Dew Point 70 °F
Humidity 74%
Rainfall 0.00 in
Snow Depth Not available.
UV 10 out of 12
Pollen Not available.
Air Quality Not available.
Flu Activity Not available.
METAR DFOO 291000Z 20012KT 9999 FEW016 SCT130 26/21 Q1017

More Conditions Fewer Conditions

Pressure 30.04 in
Visibility 6.2 miles
Clouds Few 1600 ft
Scattered Clouds 13000 ft
Dew Point 70 °F
Humidity 74%
Rainfall 0.00 in
Snow Depth Not available.
UV 10 out of 12
Pollen Not available.
Air Quality Not available.
Flu Activity Not available.
METAR DFOO 291000Z 20012KT 9999 FEW016 SCT130 26/21 Q1017

More Conditions Fewer Conditions

10-Day Weather Forecast

×

Almanac

Astronomy

Jul. 29, 2015 Rise Set
Actual Time
Civil Twilight
Nautical Twilight
Astronomical Twilight
Moon
Length of Visible Light
Length of Day
Tomorrow will be .
, % of the Moon is Illuminated

Today's Extremes

Country Highs Country Lows

Community

WunderPhotos

Upload Photos

1,842,069 photos uploaded!

WunderBlogs® & News

Nearby

Air Quality

  Air Quality AQ Index Pollutant
Not available.

Snow Depth

Station Depth Elevation

Earthquake Activity

City Distance Mag. Time & Date
Minimum magnitude displayed is 2.5.

Coastal Water Temperatures

Place Temperature

Stations

Nearby Weather Stations

Station Location Temp. Windchill Dew Point Humidity Wind Precip. Elev Updated Type